Time;durP1;ratioP1;P1;durP2;ratioP2;P2;SDS_P1;SDS_P2;PMS_P1;PMS_P2;Temp;Humidity;BMP_temperature;BMP_pressure;BME280_temperature;BME280_humidity;BME280_pressure;Samples;Min_cycle;Max_cycle;Signal;HPM_P1;HPM_P2
2022/11/30 00:00:22;;;;;;;25.00;16.43;;;1.30;99.90;;;;;;5094237;28;20498;-78
2022/11/30 00:02:52;;;;;;;30.70;16.40;;;1.40;99.90;;;;;;5092457;28;20569;-78
2022/11/30 00:05:19;;;;;;;25.93;16.07;;;1.40;99.90;;;;;;5095765;28;20617;-78
2022/11/30 00:07:48;;;;;;;25.50;15.50;;;1.40;99.90;;;;;;5097082;28;20984;-78
2022/11/30 00:10:15;;;;;;;26.53;17.07;;;1.30;99.90;;;;;;5103441;28;20477;-78
2022/11/30 00:12:42;;;;;;;24.20;16.80;;;1.30;99.90;;;;;;5095315;28;20489;-78
2022/11/30 00:15:11;;;;;;;28.77;16.50;;;1.30;99.90;;;;;;5093280;28;20485;-78
2022/11/30 00:17:38;;;;;;;20.23;14.67;;;1.30;99.90;;;;;;5090198;28;20551;-78
2022/11/30 00:20:06;;;;;;;25.13;14.63;;;1.20;99.90;;;;;;5093508;28;20511;-78
2022/11/30 00:22:33;;;;;;;26.45;16.27;;;1.20;99.90;;;;;;5094366;28;20442;-78
2022/11/30 00:25:03;;;;;;;31.00;18.43;;;1.20;99.90;;;;;;5092172;28;20356;-78
2022/11/30 00:27:30;;;;;;;22.80;15.47;;;1.20;99.90;;;;;;5100076;28;20847;-78
2022/11/30 00:29:57;;;;;;;26.47;15.80;;;1.20;99.90;;;;;;5096476;28;20508;-78
2022/11/30 00:32:24;;;;;;;24.37;16.67;;;1.20;99.90;;;;;;5087051;28;20494;-78
2022/11/30 00:34:51;;;;;;;23.50;14.87;;;1.30;99.90;;;;;;5102539;28;20529;-78
2022/11/30 00:37:18;;;;;;;24.50;16.33;;;1.30;99.90;;;;;;5088978;28;20508;-78
2022/11/30 00:39:46;;;;;;;29.30;16.30;;;1.30;99.90;;;;;;5089189;28;20563;-78
2022/11/30 00:42:14;;;;;;;29.07;17.60;;;1.30;99.90;;;;;;5103750;28;20469;-78
2022/11/30 00:44:41;;;;;;;25.40;15.00;;;1.30;99.90;;;;;;5092295;28;20489;-78
2022/11/30 00:47:09;;;;;;;29.60;17.17;;;1.30;99.90;;;;;;5096923;28;20486;-78
2022/11/30 00:49:35;;;;;;;33.00;17.60;;;1.40;99.90;;;;;;5103797;28;20550;-78
2022/11/30 00:52:02;;;;;;;28.97;16.70;;;1.40;99.90;;;;;;5092786;28;20502;-78
2022/11/30 00:54:30;;;;;;;26.53;17.33;;;1.40;99.90;;;;;;5090356;28;20943;-78
2022/11/30 00:56:56;;;;;;;21.70;14.27;;;1.50;99.90;;;;;;5091912;28;20467;-78
2022/11/30 00:59:25;;;;;;;30.53;16.43;;;1.50;99.90;;;;;;5094572;28;20458;-77
2022/11/30 01:01:53;;;;;;;28.00;17.13;;;1.50;99.90;;;;;;5102720;28;20465;-78
2022/11/30 01:04:20;;;;;;;27.67;16.07;;;1.60;99.90;;;;;;5101310;28;20460;-78
2022/11/30 01:06:47;;;;;;;25.63;16.87;;;1.50;99.90;;;;;;5103930;28;20485;-78
2022/11/30 01:09:14;;;;;;;32.70;18.77;;;1.60;99.90;;;;;;5097470;28;20496;-78
2022/11/30 01:11:41;;;;;;;25.70;17.33;;;1.60;99.90;;;;;;5101740;28;20490;-78
2022/11/30 01:14:08;;;;;;;25.90;16.27;;;1.50;99.90;;;;;;5099245;28;20563;-78
2022/11/30 01:16:36;;;;;;;30.17;18.13;;;1.50;99.90;;;;;;5093969;28;20863;-78
2022/11/30 01:19:03;;;;;;;25.57;15.70;;;1.50;99.90;;;;;;5096340;28;20490;-78
2022/11/30 01:21:30;;;;;;;30.03;16.70;;;1.60;99.90;;;;;;5106010;28;20458;-78
2022/11/30 01:23:57;;;;;;;33.40;16.13;;;1.50;99.90;;;;;;5101707;28;20490;-77
2022/11/30 01:26:24;;;;;;;30.27;17.67;;;1.50;99.90;;;;;;5097499;28;20520;-78
2022/11/30 01:28:53;;;;;;;24.60;15.93;;;1.50;99.90;;;;;;5086355;28;20495;-78
2022/11/30 01:31:22;;;;;;;24.33;13.87;;;1.50;99.90;;;;;;5095947;28;20473;-78
2022/11/30 01:33:52;;;;;;;21.57;14.93;;;1.50;99.90;;;;;;5109085;27;20535;-78
2022/11/30 01:36:21;;;;;;;25.37;15.90;;;1.50;99.90;;;;;;5101969;28;20959;-78
2022/11/30 01:38:50;;;;;;;25.30;17.00;;;1.50;99.90;;;;;;5090732;28;20543;-78
2022/11/30 01:41:21;;;;;;;24.17;16.50;;;1.60;99.90;;;;;;5096451;28;20542;-78
2022/11/30 01:43:50;;;;;;;24.70;14.10;;;1.60;99.90;;;;;;5098040;28;20961;-76
2022/11/30 01:46:29;;;;;;;25.60;16.20;;;1.60;99.90;;;;;;5092090;28;20543;-76
2022/11/30 01:49:16;;;;;;;24.90;15.40;;;1.60;99.90;;;;;;5089825;28;20535;-75
2022/11/30 01:51:48;;;;;;;26.33;15.00;;;1.70;99.90;;;;;;5089351;28;20782;-76
2022/11/30 01:54:18;;;;;;;24.50;14.10;;;1.70;99.90;;;;;;5093815;28;20551;-75
2022/11/30 01:56:50;;;;;;;34.87;19.83;;;1.70;99.90;;;;;;5094679;28;21238;-76
2022/11/30 01:59:20;;;;;;;27.80;17.30;;;1.70;99.90;;;;;;5086139;28;20512;-77
2022/11/30 02:01:48;;;;;;;30.67;16.30;;;1.70;99.90;;;;;;5094809;28;20490;-77
2022/11/30 02:04:21;;;;;;;22.57;15.30;;;1.70;99.90;;;;;;5092314;28;20491;-77
2022/11/30 02:06:49;;;;;;;23.13;14.97;;;1.60;99.90;;;;;;5093474;28;20513;-77
2022/11/30 02:09:18;;;;;;;25.60;16.10;;;1.60;99.90;;;;;;5091901;28;20491;-77
2022/11/30 02:11:45;;;;;;;31.20;15.80;;;1.60;99.90;;;;;;5093114;28;21006;-77
2022/11/30 02:14:27;;;;;;;26.67;13.33;;;1.70;99.90;;;;;;5095518;28;20520;-77
2022/11/30 02:17:05;;;;;;;27.87;16.60;;;1.60;99.90;;;;;;5090191;28;20992;-77
2022/11/30 02:20:03;;;;;;;27.97;16.77;;;1.50;99.90;;;;;;5097645;28;20922;-77
2022/11/30 02:22:46;;;;;;;27.90;15.00;;;1.50;99.90;;;;;;5096457;28;20438;-77
2022/11/30 02:25:24;;;;;;;21.87;13.70;;;1.50;99.90;;;;;;5097646;28;20462;-77
2022/11/30 02:28:09;;;;;;;29.30;16.70;;;1.60;99.90;;;;;;5094665;28;20477;-77
2022/11/30 02:30:42;;;;;;;25.00;15.93;;;1.50;99.90;;;;;;5093718;28;20470;-77
2022/11/30 02:33:15;;;;;;;25.10;14.43;;;1.50;99.90;;;;;;5090054;28;20989;-77
2022/11/30 02:35:45;;;;;;;27.63;14.40;;;1.50;99.90;;;;;;5091906;28;21136;-77
2022/11/30 02:38:13;;;;;;;25.03;13.63;;;1.50;99.90;;;;;;5099458;28;20477;-77
2022/11/30 02:40:40;;;;;;;25.90;15.33;;;1.50;99.90;;;;;;5096463;28;20486;-77
2022/11/30 02:43:07;;;;;;;23.70;14.13;;;1.40;99.90;;;;;;5092365;28;21179;-77
2022/11/30 02:45:44;;;;;;;29.57;16.73;;;1.40;99.90;;;;;;5094456;28;20513;-77
2022/11/30 02:48:13;;;;;;;23.00;14.00;;;1.40;99.90;;;;;;5093892;28;20489;-77
2022/11/30 02:50:45;;;;;;;25.00;15.63;;;1.40;99.90;;;;;;5091871;28;20506;-77
2022/11/30 02:53:12;;;;;;;24.20;15.07;;;1.40;99.90;;;;;;5090170;28;20462;-77
2022/11/30 02:55:39;;;;;;;27.63;15.87;;;1.30;99.90;;;;;;5084296;28;20937;-77
2022/11/30 02:58:07;;;;;;;27.60;16.93;;;1.30;99.90;;;;;;5093884;28;20498;-77
2022/11/30 03:00:34;;;;;;;24.93;14.80;;;1.30;99.90;;;;;;5093498;28;20971;-77
2022/11/30 03:03:02;;;;;;;25.73;17.73;;;1.30;99.90;;;;;;5093131;28;20489;-76
2022/11/30 03:05:29;;;;;;;21.70;13.87;;;1.30;99.90;;;;;;5092373;28;20481;-77
2022/11/30 03:07:56;;;;;;;23.67;14.43;;;1.20;99.90;;;;;;5105411;28;20534;-77
2022/11/30 03:10:23;;;;;;;27.60;15.70;;;1.20;99.90;;;;;;5095536;28;20500;-77
2022/11/30 03:12:50;;;;;;;23.57;14.03;;;1.20;99.90;;;;;;5096051;28;20490;-77
2022/11/30 03:15:17;;;;;;;27.50;16.33;;;1.10;99.90;;;;;;5101839;28;20621;-77
2022/11/30 03:17:44;;;;;;;30.27;17.73;;;1.10;99.90;;;;;;5098987;28;20485;-76
2022/11/30 03:20:12;;;;;;;21.03;14.07;;;1.10;99.90;;;;;;5109064;28;20831;-77
2022/11/30 03:22:39;;;;;;;25.90;16.17;;;1.20;99.90;;;;;;5107600;28;20489;-77
2022/11/30 03:25:08;;;;;;;26.10;15.30;;;1.10;99.90;;;;;;5095666;28;20493;-77
2022/11/30 03:27:35;;;;;;;35.37;19.30;;;1.10;99.90;;;;;;5087146;28;20567;-77
2022/11/30 03:30:02;;;;;;;25.93;15.90;;;1.20;99.90;;;;;;5097718;28;20494;-77
2022/11/30 03:32:29;;;;;;;27.43;16.90;;;1.20;99.90;;;;;;5085858;28;20551;-77
2022/11/30 03:34:56;;;;;;;29.70;17.63;;;1.20;99.90;;;;;;5089694;28;20462;-77
2022/11/30 03:37:25;;;;;;;25.93;16.17;;;1.20;99.90;;;;;;5097114;28;20483;-77
2022/11/30 03:39:51;;;;;;;30.80;18.00;;;1.20;99.90;;;;;;5089408;28;20463;-77
2022/11/30 03:42:18;;;;;;;26.53;15.57;;;1.20;99.90;;;;;;5088092;28;20505;-77
2022/11/30 03:44:45;;;;;;;24.43;16.23;;;1.20;99.90;;;;;;5091056;28;20905;-77
2022/11/30 03:47:12;;;;;;;34.60;19.60;;;1.10;99.90;;;;;;5085593;28;20514;-77
2022/11/30 03:49:39;;;;;;;26.57;15.37;;;1.20;99.90;;;;;;5090678;28;20490;-77
2022/11/30 03:52:06;;;;;;;24.00;14.37;;;1.10;99.90;;;;;;5091653;28;20457;-77
2022/11/30 03:54:34;;;;;;;26.87;16.73;;;1.10;99.90;;;;;;5100418;28;20486;-77
2022/11/30 03:57:02;;;;;;;30.17;18.43;;;1.20;99.90;;;;;;5097243;28;20536;-77
2022/11/30 03:59:29;;;;;;;27.80;17.63;;;1.20;99.90;;;;;;5088527;28;20487;-75
2022/11/30 04:01:56;;;;;;;24.60;16.17;;;1.20;99.90;;;;;;5088362;28;20508;-76
2022/11/30 04:04:23;;;;;;;27.30;15.37;;;1.10;99.90;;;;;;5098590;28;20489;-76
2022/11/30 04:06:50;;;;;;;32.03;16.07;;;1.10;99.90;;;;;;5101270;28;20992;-76
2022/11/30 04:09:16;;;;;;;27.47;16.03;;;1.10;99.90;;;;;;5106118;28;20506;-76
2022/11/30 04:11:45;;;;;;;26.97;15.90;;;1.10;99.90;;;;;;5093894;28;20493;-76
2022/11/30 04:14:12;;;;;;;24.97;17.10;;;1.10;99.90;;;;;;5101441;28;20497;-76
2022/11/30 04:16:38;;;;;;;24.23;15.87;;;1.10;99.90;;;;;;5095731;28;20482;-76
2022/11/30 04:19:05;;;;;;;26.67;16.77;;;1.10;99.90;;;;;;5104857;28;20489;-76
2022/11/30 04:21:32;;;;;;;28.17;17.93;;;1.10;99.90;;;;;;5098268;28;20519;-76
2022/11/30 04:23:59;;;;;;;30.97;19.20;;;1.10;99.90;;;;;;5101426;27;20496;-76
2022/11/30 04:26:26;;;;;;;31.60;16.90;;;1.10;99.90;;;;;;5098621;27;20524;-77
2022/11/30 04:28:54;;;;;;;26.57;16.20;;;1.10;99.90;;;;;;5102601;28;20509;-77
2022/11/30 04:31:21;;;;;;;34.10;18.60;;;1.00;99.90;;;;;;5099202;28;21012;-77
2022/11/30 04:33:52;;;;;;;29.73;16.70;;;1.10;99.90;;;;;;5103907;28;20475;-77
2022/11/30 04:36:20;;;;;;;31.60;17.30;;;1.00;99.90;;;;;;5099321;28;20497;-77
2022/11/30 04:38:49;;;;;;;28.00;17.60;;;1.00;99.90;;;;;;5104454;28;20489;-77
2022/11/30 04:41:16;;;;;;;31.67;18.20;;;1.00;99.90;;;;;;5091803;28;20238;-77
2022/11/30 04:43:43;;;;;;;27.17;15.57;;;1.10;99.90;;;;;;5103221;28;20549;-77
2022/11/30 04:46:11;;;;;;;30.93;16.10;;;1.10;99.90;;;;;;5103146;28;20975;-77
2022/11/30 04:48:38;;;;;;;29.87;18.23;;;1.10;99.90;;;;;;5099286;28;20527;-76
2022/11/30 04:51:08;;;;;;;25.00;14.87;;;1.10;99.90;;;;;;5098749;28;20502;-77
2022/11/30 04:53:37;;;;;;;27.20;18.23;;;1.10;99.90;;;;;;5096285;28;20487;-77
2022/11/30 04:56:06;;;;;;;35.23;17.40;;;1.10;99.90;;;;;;5096782;28;21158;-77
2022/11/30 04:58:33;;;;;;;24.50;16.20;;;1.10;99.90;;;;;;5101105;28;20461;-77
2022/11/30 05:01:00;;;;;;;25.70;16.43;;;1.10;99.90;;;;;;5098751;27;20841;-77
2022/11/30 05:03:28;;;;;;;25.73;15.77;;;1.20;99.90;;;;;;5087605;28;20500;-77
2022/11/30 05:05:56;;;;;;;33.47;18.40;;;1.20;99.90;;;;;;5090577;28;20508;-77
2022/11/30 05:08:23;;;;;;;25.90;16.07;;;1.20;99.90;;;;;;5099818;28;20469;-77
2022/11/30 05:10:52;;;;;;;28.57;14.97;;;1.30;99.90;;;;;;5099983;28;20515;-77
2022/11/30 05:13:19;;;;;;;30.70;17.40;;;1.30;99.90;;;;;;5095471;28;20547;-77
2022/11/30 05:15:46;;;;;;;33.67;16.97;;;1.30;99.90;;;;;;5098226;28;20493;-77
2022/11/30 05:18:14;;;;;;;35.00;18.63;;;1.30;99.90;;;;;;5102036;27;20454;-77
2022/11/30 05:20:47;;;;;;;27.07;16.23;;;1.30;99.90;;;;;;5091972;28;20468;-77
2022/11/30 05:23:14;;;;;;;24.07;14.60;;;1.30;99.90;;;;;;5095626;28;20926;-76
2022/11/30 05:25:41;;;;;;;32.63;16.10;;;1.30;99.90;;;;;;5094720;28;20509;-76
2022/11/30 05:28:08;;;;;;;32.40;18.17;;;1.20;99.90;;;;;;5100319;28;20559;-76
2022/11/30 05:30:35;;;;;;;28.57;17.33;;;1.20;99.90;;;;;;5092549;28;20635;-76
2022/11/30 05:33:02;;;;;;;26.90;16.60;;;1.20;99.90;;;;;;5094204;28;20462;-76
2022/11/30 05:35:29;;;;;;;29.43;18.13;;;1.20;99.90;;;;;;5094705;28;20479;-76
2022/11/30 05:37:57;;;;;;;28.23;17.13;;;1.30;99.90;;;;;;5101730;28;20522;-76
2022/11/30 05:40:26;;;;;;;28.83;17.50;;;1.20;99.90;;;;;;5086411;28;20493;-76
2022/11/30 05:42:56;;;;;;;28.80;17.40;;;1.20;99.90;;;;;;5088039;28;20467;-76
2022/11/30 05:45:24;;;;;;;26.60;16.67;;;1.20;99.90;;;;;;5088165;28;20463;-76
2022/11/30 05:47:51;;;;;;;24.57;14.73;;;1.20;99.90;;;;;;5085746;28;20552;-76
2022/11/30 05:50:18;;;;;;;24.13;16.40;;;1.20;99.90;;;;;;5095222;28;20463;-76
2022/11/30 05:52:45;;;;;;;26.85;16.85;;;1.20;99.90;;;;;;5092743;28;20895;-76
2022/11/30 05:55:14;;;;;;;26.87;14.97;;;1.20;99.90;;;;;;5091987;28;20236;-76
2022/11/30 05:57:41;;;;;;;28.13;15.53;;;1.20;99.90;;;;;;5090122;28;21086;-76
2022/11/30 06:00:09;;;;;;;27.70;15.93;;;1.20;99.90;;;;;;5086101;28;20490;-76
2022/11/30 06:02:36;;;;;;;31.00;17.93;;;1.10;99.90;;;;;;5091017;28;20461;-76
2022/11/30 06:05:03;;;;;;;34.87;17.40;;;1.10;99.90;;;;;;5087301;28;20558;-76
2022/11/30 06:07:30;;;;;;;28.57;17.07;;;1.10;99.90;;;;;;5092499;28;21219;-76
2022/11/30 06:09:57;;;;;;;27.10;16.97;;;1.00;99.90;;;;;;5089322;28;20551;-76
2022/11/30 06:12:26;;;;;;;30.37;15.90;;;0.90;99.90;;;;;;5089512;28;20558;-76
2022/11/30 06:14:53;;;;;;;28.07;15.10;;;0.90;99.90;;;;;;5088616;27;20497;-76
2022/11/30 06:17:19;;;;;;;29.73;18.00;;;0.90;99.90;;;;;;5091663;28;20461;-76
2022/11/30 06:19:46;;;;;;;27.75;16.73;;;0.90;99.90;;;;;;5098654;28;20498;-76
2022/11/30 06:22:13;;;;;;;68.83;37.40;;;0.90;99.90;;;;;;5103595;27;20242;-76
2022/11/30 06:24:40;;;;;;;120.35;62.25;;;0.90;99.90;;;;;;5096767;28;20480;-76
2022/11/30 06:27:07;;;;;;;63.80;34.10;;;0.80;99.90;;;;;;5094148;28;20223;-76
2022/11/30 06:29:35;;;;;;;74.20;40.03;;;0.80;99.90;;;;;;5097374;28;20580;-76
2022/11/30 06:32:02;;;;;;;52.07;29.03;;;0.70;99.90;;;;;;5091057;28;20251;-76
2022/11/30 06:34:31;;;;;;;31.57;19.63;;;0.60;99.90;;;;;;5092690;28;21006;-76
2022/11/30 06:36:58;;;;;;;38.00;19.70;;;0.60;99.90;;;;;;5095848;28;20455;-76
2022/11/30 06:39:25;;;;;;;36.60;19.57;;;0.60;99.90;;;;;;5097167;28;21133;-77
2022/11/30 06:41:52;;;;;;;41.37;26.17;;;0.60;99.90;;;;;;5099281;28;20533;-76
2022/11/30 06:44:19;;;;;;;32.93;19.43;;;0.70;99.90;;;;;;5094864;27;20456;-76
2022/11/30 06:46:47;;;;;;;42.75;25.30;;;0.70;99.90;;;;;;5104638;28;20598;-76
2022/11/30 06:49:15;;;;;;;40.43;26.20;;;0.80;99.90;;;;;;5086528;28;20243;-78
2022/11/30 06:51:42;;;;;;;57.90;38.92;;;0.80;99.90;;;;;;5087344;28;21294;-76
2022/11/30 06:54:09;;;;;;;32.73;22.60;;;0.80;99.90;;;;;;5095581;28;20219;-76
2022/11/30 06:56:36;;;;;;;30.80;18.15;;;0.90;99.90;;;;;;5092468;28;21032;-76
2022/11/30 06:59:03;;;;;;;32.70;19.35;;;0.90;99.90;;;;;;5100052;28;20234;-76
2022/11/30 07:01:30;;;;;;;33.20;20.30;;;0.90;99.90;;;;;;5089634;28;20313;-76
2022/11/30 07:03:59;;;;;;;36.07;19.30;;;1.00;99.90;;;;;;5102492;28;21134;-76
2022/11/30 07:06:26;;;;;;;39.87;18.97;;;1.00;99.90;;;;;;5090263;28;20559;-76
2022/11/30 07:08:52;;;;;;;44.60;20.50;;;1.00;99.90;;;;;;5091462;28;20510;-76
2022/11/30 07:11:19;;;;;;;34.43;19.73;;;1.00;99.90;;;;;;5086916;28;20492;-75
2022/11/30 07:13:46;;;;;;;36.43;19.97;;;1.00;99.90;;;;;;5085867;28;20490;-76
2022/11/30 07:16:13;;;;;;;47.23;19.93;;;1.00;99.90;;;;;;5087722;28;20510;-77
2022/11/30 07:18:40;;;;;;;45.67;22.00;;;1.10;99.90;;;;;;5089400;28;20495;-77
2022/11/30 07:21:09;;;;;;;38.83;20.23;;;1.10;99.90;;;;;;5088402;28;20508;-77
2022/11/30 07:26:21;;;;;;;37.87;18.80;;;1.10;99.90;;;;;;5087635;28;20515;-78
2022/11/30 07:28:53;;;;;;;39.67;19.90;;;1.10;99.90;;;;;;5087365;28;20529;-78
2022/11/30 07:31:22;;;;;;;32.63;19.30;;;1.10;99.90;;;;;;5094145;28;20462;-78
2022/11/30 07:33:50;;;;;;;35.13;16.20;;;1.10;99.90;;;;;;5088242;28;20532;-75
2022/11/30 07:36:20;;;;;;;35.23;18.33;;;1.00;99.90;;;;;;5092346;28;20497;-76
2022/11/30 07:38:47;;;;;;;33.03;17.47;;;1.00;99.90;;;;;;5089316;28;20561;-76
2022/11/30 07:41:14;;;;;;;31.63;17.07;;;1.00;99.90;;;;;;5092193;28;20858;-76
2022/11/30 07:43:41;;;;;;;29.10;17.40;;;1.10;99.90;;;;;;5092492;28;20466;-76
2022/11/30 07:46:11;;;;;;;28.23;17.10;;;1.10;99.90;;;;;;5100723;28;20477;-76
2022/11/30 07:48:38;;;;;;;30.97;16.97;;;1.10;99.90;;;;;;5092198;28;20525;-76
2022/11/30 07:51:06;;;;;;;28.93;16.47;;;1.10;99.90;;;;;;5091959;28;21083;-76
2022/11/30 07:53:34;;;;;;;28.80;18.40;;;1.20;99.90;;;;;;5086398;28;20494;-76
2022/11/30 07:56:03;;;;;;;32.50;17.57;;;1.20;99.90;;;;;;5087468;28;20547;-76
2022/11/30 07:58:31;;;;;;;44.37;21.40;;;1.20;99.90;;;;;;5086380;28;20462;-76
2022/11/30 08:01:02;;;;;;;25.93;16.17;;;1.20;99.90;;;;;;5093270;28;20545;-76
2022/11/30 08:03:29;;;;;;;33.30;19.53;;;1.30;99.90;;;;;;5088922;28;20475;-76
2022/11/30 08:06:01;;;;;;;45.10;21.97;;;1.20;99.90;;;;;;5089060;28;20509;-78
2022/11/30 08:08:30;;;;;;;37.77;19.63;;;1.30;99.90;;;;;;5090387;28;20488;-76
2022/11/30 08:10:59;;;;;;;37.70;25.13;;;1.40;99.90;;;;;;5088229;28;20502;-76
2022/11/30 08:13:26;;;;;;;43.73;18.83;;;1.60;99.90;;;;;;5095024;28;20516;-76
2022/11/30 08:15:54;;;;;;;31.77;17.60;;;1.70;99.90;;;;;;5088635;28;20489;-76
2022/11/30 08:18:21;;;;;;;35.13;18.07;;;1.70;99.90;;;;;;5090397;28;20551;-76
2022/11/30 08:20:48;;;;;;;34.20;17.33;;;1.70;99.90;;;;;;5095325;28;20505;-76
2022/11/30 08:23:15;;;;;;;39.73;18.53;;;1.70;99.90;;;;;;5088969;28;20582;-76
2022/11/30 08:25:41;;;;;;;37.37;19.87;;;1.80;99.90;;;;;;5087073;28;20489;-76
2022/11/30 08:28:10;;;;;;;31.77;20.40;;;2.00;99.90;;;;;;5086509;28;20577;-76
2022/11/30 08:30:37;;;;;;;31.33;18.80;;;2.10;99.90;;;;;;5084574;28;20491;-76
2022/11/30 08:33:04;;;;;;;37.23;18.80;;;2.30;99.90;;;;;;5100357;28;20481;-76
2022/11/30 08:35:31;;;;;;;24.57;15.37;;;2.30;99.90;;;;;;5086689;28;20500;-76
2022/11/30 08:37:58;;;;;;;29.43;18.73;;;2.30;99.90;;;;;;5086496;28;20505;-76
2022/11/30 08:40:24;;;;;;;32.40;19.43;;;2.20;99.90;;;;;;5085818;28;21213;-76
2022/11/30 08:42:51;;;;;;;30.13;17.00;;;2.20;99.90;;;;;;5088949;28;20474;-76
2022/11/30 08:45:20;;;;;;;24.60;16.97;;;2.30;99.90;;;;;;5088399;28;20941;-76
2022/11/30 08:47:47;;;;;;;30.93;17.53;;;2.30;99.90;;;;;;5090626;28;20529;-76
2022/11/30 08:50:14;;;;;;;34.27;16.67;;;2.40;99.90;;;;;;5090744;28;20494;-76
2022/11/30 08:52:41;;;;;;;38.60;18.83;;;2.30;99.90;;;;;;5085161;28;21114;-76
2022/11/30 08:55:09;;;;;;;28.00;18.10;;;2.20;99.90;;;;;;5092136;28;20459;-76
2022/11/30 08:57:36;;;;;;;24.97;15.47;;;2.20;99.90;;;;;;5093430;28;20458;-76
2022/11/30 09:00:04;;;;;;;26.83;16.60;;;2.10;99.90;;;;;;5087459;28;21074;-76
2022/11/30 09:02:32;;;;;;;23.37;15.63;;;2.00;99.90;;;;;;5094947;28;20519;-76
2022/11/30 09:04:59;;;;;;;26.27;14.17;;;2.00;99.90;;;;;;5086100;28;20463;-76
2022/11/30 09:07:26;;;;;;;23.77;14.00;;;2.10;99.90;;;;;;5097820;27;20589;-76
2022/11/30 09:09:53;;;;;;;25.50;14.77;;;2.20;99.90;;;;;;5095273;28;20493;-76
2022/11/30 09:12:20;;;;;;;20.17;13.40;;;2.20;99.90;;;;;;5102662;27;20493;-76
2022/11/30 09:14:48;;;;;;;23.20;14.00;;;2.30;99.90;;;;;;5099777;27;20543;-75
2022/11/30 09:17:15;;;;;;;26.33;16.47;;;2.50;99.90;;;;;;5098461;27;20524;-75
2022/11/30 09:19:43;;;;;;;23.50;15.97;;;2.70;99.90;;;;;;5096925;28;20519;-76
2022/11/30 09:22:10;;;;;;;28.20;14.70;;;2.70;99.90;;;;;;5099471;28;21024;-76
2022/11/30 09:24:37;;;;;;;19.57;12.53;;;2.80;99.90;;;;;;5099532;28;20589;-76
2022/11/30 09:27:04;;;;;;;19.97;12.47;;;2.90;99.90;;;;;;5099032;28;20454;-76
2022/11/30 09:29:31;;;;;;;24.40;14.27;;;2.80;99.90;;;;;;5093605;28;20581;-76
2022/11/30 09:31:58;;;;;;;22.77;12.70;;;2.70;99.90;;;;;;5096731;27;20975;-76
2022/11/30 09:34:25;;;;;;;24.37;12.97;;;2.80;99.90;;;;;;5085602;28;20510;-76
2022/11/30 09:36:53;;;;;;;21.37;13.10;;;3.00;99.90;;;;;;5087136;28;20473;-75
2022/11/30 09:39:20;;;;;;;22.43;15.00;;;2.90;99.90;;;;;;5086971;28;20790;-75
2022/11/30 09:42:19;;;;;;;18.27;12.30;;;2.60;99.90;;;;;;5095554;28;20476;-75
2022/11/30 09:44:54;;;;;;;23.50;12.73;;;2.70;99.90;;;;;;5093336;28;21156;-75
2022/11/30 09:47:38;;;;;;;17.30;11.90;;;2.60;99.90;;;;;;5086544;28;20498;-76
2022/11/30 09:50:12;;;;;;;24.30;14.00;;;2.50;99.90;;;;;;5099854;27;20495;-75
2022/11/30 09:52:44;;;;;;;17.83;11.87;;;2.50;99.90;;;;;;5107960;27;20500;-76
2022/11/30 09:55:15;;;;;;;25.20;14.90;;;2.40;99.90;;;;;;5100961;28;20477;-78
2022/11/30 09:57:46;;;;;;;19.20;12.37;;;2.20;99.90;;;;;;5088270;28;20551;-76
2022/11/30 10:00:15;;;;;;;20.87;13.00;;;2.20;99.90;;;;;;5095865;28;20888;-76
2022/11/30 10:02:43;;;;;;;25.43;15.07;;;2.30;99.90;;;;;;5101697;28;20479;-76
2022/11/30 10:05:14;;;;;;;21.90;13.20;;;2.40;99.90;;;;;;5094878;28;20912;-76
2022/11/30 10:07:58;;;;;;;30.67;17.83;;;2.40;99.90;;;;;;5089431;27;20514;-76
2022/11/30 10:10:34;;;;;;;29.53;16.30;;;2.20;99.90;;;;;;5086667;28;20497;-76
2022/11/30 10:13:14;;;;;;;31.47;16.30;;;2.20;99.90;;;;;;5086151;28;20490;-76
2022/11/30 10:15:54;;;;;;;32.23;17.20;;;2.30;99.90;;;;;;5084946;28;20525;-76
2022/11/30 10:18:30;;;;;;;26.00;13.73;;;2.40;99.90;;;;;;5087702;28;20457;-76
2022/11/30 10:21:02;;;;;;;30.30;16.97;;;2.60;99.90;;;;;;5093460;28;20502;-76
2022/11/30 10:23:44;;;;;;;25.20;15.40;;;2.50;99.90;;;;;;5086765;28;20479;-76
2022/11/30 10:26:16;;;;;;;27.27;15.70;;;2.70;99.90;;;;;;5088155;28;20451;-76
2022/11/30 10:28:50;;;;;;;24.63;15.50;;;2.60;99.90;;;;;;5083899;28;20509;-76
2022/11/30 10:31:20;;;;;;;23.30;14.07;;;2.40;99.90;;;;;;5093062;28;20530;-76
2022/11/30 10:33:48;;;;;;;30.77;15.43;;;2.40;99.90;;;;;;5092149;28;20490;-76
2022/11/30 10:36:27;;;;;;;31.87;16.70;;;2.60;99.90;;;;;;5088855;28;20930;-77
2022/11/30 10:39:00;;;;;;;35.47;17.73;;;2.60;99.90;;;;;;5084949;28;20918;-77
2022/11/30 10:41:32;;;;;;;27.33;15.20;;;2.60;99.90;;;;;;5088257;28;20494;-77
2022/11/30 10:44:04;;;;;;;39.53;17.10;;;2.80;99.90;;;;;;5097425;28;20496;-75
2022/11/30 10:46:33;;;;;;;25.30;14.37;;;2.90;99.90;;;;;;5085738;28;20603;-75
2022/11/30 10:49:05;;;;;;;25.17;15.00;;;3.00;99.90;;;;;;5087005;28;20891;-75
2022/11/30 10:51:36;;;;;;;29.20;17.53;;;3.00;99.90;;;;;;5093045;27;20465;-75
2022/11/30 10:54:13;;;;;;;29.57;16.03;;;2.90;99.90;;;;;;5100973;28;20454;-75
2022/11/30 10:56:40;;;;;;;27.73;14.60;;;3.10;99.90;;;;;;5094797;28;20491;-75
2022/11/30 10:59:15;;;;;;;25.50;15.53;;;3.20;99.90;;;;;;5099848;28;20477;-75
2022/11/30 11:01:42;;;;;;;22.43;14.33;;;3.30;99.90;;;;;;5097258;28;20468;-75
2022/11/30 11:04:15;;;;;;;20.40;13.60;;;3.30;99.90;;;;;;5085455;28;20478;-75
2022/11/30 11:06:46;;;;;;;25.50;15.83;;;3.30;99.90;;;;;;5096111;28;21011;-75
2022/11/30 11:09:34;;;;;;;27.97;15.30;;;3.50;99.90;;;;;;5101989;28;20603;-75
2022/11/30 11:12:03;;;;;;;27.77;14.47;;;3.60;99.90;;;;;;5097605;28;20527;-75
2022/11/30 11:14:31;;;;;;;33.97;18.80;;;3.60;99.90;;;;;;5098622;28;20462;-75
2022/11/30 11:16:59;;;;;;;29.33;17.30;;;3.60;99.90;;;;;;5099122;28;20553;-75
2022/11/30 11:19:33;;;;;;;29.23;17.47;;;3.40;99.90;;;;;;5096422;28;20492;-75
2022/11/30 11:22:03;;;;;;;32.90;18.83;;;3.20;99.90;;;;;;5094836;28;20567;-77
2022/11/30 11:24:32;;;;;;;26.83;15.30;;;2.90;99.90;;;;;;5084957;28;20550;-77
2022/11/30 11:26:59;;;;;;;28.73;17.50;;;2.70;99.90;;;;;;5091157;28;20506;-77
2022/11/30 11:29:33;;;;;;;34.77;17.43;;;2.70;99.90;;;;;;5094096;28;20497;-75
2022/11/30 11:32:19;;;;;;;27.53;17.00;;;2.80;99.90;;;;;;5094322;28;21129;-74
2022/11/30 11:34:46;;;;;;;26.10;15.47;;;2.80;99.90;;;;;;5092310;28;20563;-75
2022/11/30 11:37:19;;;;;;;23.27;14.70;;;2.80;99.90;;;;;;5085377;28;20486;-77
2022/11/30 11:39:59;;;;;;;29.80;20.07;;;2.70;99.90;;;;;;5084199;28;20544;-77
2022/11/30 11:42:28;;;;;;;29.43;16.27;;;2.70;99.90;;;;;;5098202;28;20547;-77
2022/11/30 11:44:58;;;;;;;41.23;22.73;;;2.50;99.90;;;;;;5085036;28;20584;-77
2022/11/30 11:47:28;;;;;;;37.57;19.03;;;2.60;99.90;;;;;;5089943;28;21052;-77
2022/11/30 11:50:24;;;;;;;24.93;14.30;;;2.80;99.90;;;;;;5084111;28;20490;-78
2022/11/30 11:53:21;;;;;;;20.60;13.63;;;2.90;99.90;;;;;;5083205;28;20439;-78
2022/11/30 11:55:58;;;;;;;24.87;16.80;;;2.90;99.90;;;;;;5099071;28;21307;-77
2022/11/30 11:58:37;;;;;;;22.40;14.47;;;2.90;99.90;;;;;;5098336;28;20482;-75
2022/11/30 12:01:09;;;;;;;25.50;16.27;;;3.10;99.90;;;;;;5087438;28;20631;-75
2022/11/30 12:03:43;;;;;;;27.03;14.30;;;3.20;99.90;;;;;;5100210;28;20585;-75
2022/11/30 12:06:13;;;;;;;22.07;13.33;;;3.40;99.90;;;;;;5094043;28;20494;-75
2022/11/30 12:08:46;;;;;;;26.37;15.63;;;3.40;99.90;;;;;;5088421;28;20577;-75
2022/11/30 12:11:19;;;;;;;20.77;14.00;;;3.40;99.90;;;;;;5086004;28;20469;-75
2022/11/30 12:13:47;;;;;;;24.47;14.60;;;3.50;99.90;;;;;;5089940;28;20462;-75
2022/11/30 12:16:37;;;;;;;22.33;13.90;;;3.30;99.90;;;;;;5093491;28;21165;-77
2022/11/30 12:19:13;;;;;;;21.13;13.77;;;3.20;99.90;;;;;;5092189;27;20451;-77
2022/11/30 12:21:54;;;;;;;25.43;13.63;;;3.30;99.90;;;;;;5091763;28;20469;-77
2022/11/30 12:24:43;;;;;;;22.33;14.50;;;3.30;99.90;;;;;;5089487;27;20561;-77
2022/11/30 12:27:27;;;;;;;29.40;12.63;;;3.40;99.90;;;;;;5090191;28;20489;-75
2022/11/30 12:30:05;;;;;;;22.97;11.70;;;3.50;99.90;;;;;;5087200;27;21167;-75
2022/11/30 12:32:50;;;;;;;21.43;12.77;;;3.60;99.90;;;;;;5092419;28;20470;-75
2022/11/30 12:35:30;;;;;;;18.80;13.80;;;3.90;99.90;;;;;;5093687;28;20517;-75
2022/11/30 12:38:05;;;;;;;25.07;17.40;;;4.00;99.90;;;;;;5091356;27;20880;-75
2022/11/30 12:40:39;;;;;;;26.57;15.20;;;3.80;99.90;;;;;;5090750;28;20486;-75
2022/11/30 12:43:17;;;;;;;23.37;13.53;;;3.80;99.90;;;;;;5093728;28;20475;-75
2022/11/30 12:45:45;;;;;;;28.07;14.63;;;3.80;99.90;;;;;;5089172;28;20457;-75
2022/11/30 12:48:25;;;;;;;22.97;13.77;;;3.70;99.90;;;;;;5102164;27;20482;-75
2022/11/30 12:51:10;;;;;;;21.77;14.50;;;3.70;99.90;;;;;;5085542;28;20474;-75